sensor_id;sensor_type;location;lat;lon;timestamp;P1;durP1;ratioP1;P2;durP2;ratioP2
61702;SDS011;47622;47.726;3.298;2022-09-03T00:05:18;4.63;;;2.10;;
61702;SDS011;47622;47.726;3.298;2022-09-03T00:13:00;2.33;;;2.13;;
61702;SDS011;47622;47.726;3.298;2022-09-03T00:15:31;2.05;;;1.85;;
61702;SDS011;47622;47.726;3.298;2022-09-03T00:18:07;3.97;;;2.00;;
61702;SDS011;47622;47.726;3.298;2022-09-03T00:21:03;2.50;;;1.90;;
61702;SDS011;47622;47.726;3.298;2022-09-03T00:23:34;3.65;;;1.95;;
61702;SDS011;47622;47.726;3.298;2022-09-03T00:26:15;2.33;;;2.03;;
61702;SDS011;47622;47.726;3.298;2022-09-03T00:28:50;4.22;;;2.05;;
61702;SDS011;47622;47.726;3.298;2022-09-03T00:31:21;3.58;;;1.98;;
61702;SDS011;47622;47.726;3.298;2022-09-03T00:33:54;2.75;;;1.98;;
61702;SDS011;47622;47.726;3.298;2022-09-03T00:36:30;2.10;;;1.88;;
61702;SDS011;47622;47.726;3.298;2022-09-03T00:39:01;2.50;;;2.08;;
61702;SDS011;47622;47.726;3.298;2022-09-03T01:00:46;2.78;;;1.98;;
61702;SDS011;47622;47.726;3.298;2022-09-03T01:03:24;2.45;;;2.05;;
61702;SDS011;47622;47.726;3.298;2022-09-03T01:11:32;4.60;;;1.75;;
61702;SDS011;47622;47.726;3.298;2022-09-03T01:16:53;4.80;;;2.10;;
61702;SDS011;47622;47.726;3.298;2022-09-03T01:30:40;2.58;;;2.05;;
61702;SDS011;47622;47.726;3.298;2022-09-03T01:38:46;4.68;;;2.15;;
61702;SDS011;47622;47.726;3.298;2022-09-03T01:47:25;4.35;;;2.30;;
61702;SDS011;47622;47.726;3.298;2022-09-03T01:52:39;3.53;;;2.20;;
61702;SDS011;47622;47.726;3.298;2022-09-03T01:55:33;6.68;;;2.55;;
61702;SDS011;47622;47.726;3.298;2022-09-03T01:58:23;3.30;;;2.28;;
61702;SDS011;47622;47.726;3.298;2022-09-03T02:00:57;3.45;;;2.38;;
61702;SDS011;47622;47.726;3.298;2022-09-03T02:03:38;4.25;;;2.40;;
61702;SDS011;47622;47.726;3.298;2022-09-03T02:06:07;2.45;;;2.13;;
61702;SDS011;47622;47.726;3.298;2022-09-03T02:08:35;3.47;;;2.35;;
61702;SDS011;47622;47.726;3.298;2022-09-03T02:11:02;2.20;;;1.85;;
61702;SDS011;47622;47.726;3.298;2022-09-03T02:13:33;3.08;;;2.05;;
61702;SDS011;47622;47.726;3.298;2022-09-03T02:16:05;2.58;;;2.05;;
61702;SDS011;47622;47.726;3.298;2022-09-03T02:18:47;3.60;;;2.47;;
61702;SDS011;47622;47.726;3.298;2022-09-03T02:21:17;3.55;;;2.47;;
61702;SDS011;47622;47.726;3.298;2022-09-03T02:23:45;4.25;;;2.33;;
61702;SDS011;47622;47.726;3.298;2022-09-03T02:26:13;3.70;;;2.47;;
61702;SDS011;47622;47.726;3.298;2022-09-03T02:28:42;2.88;;;2.58;;
61702;SDS011;47622;47.726;3.298;2022-09-03T02:31:08;3.50;;;2.30;;
61702;SDS011;47622;47.726;3.298;2022-09-03T02:33:36;6.05;;;2.28;;
61702;SDS011;47622;47.726;3.298;2022-09-03T02:36:04;2.85;;;2.40;;
61702;SDS011;47622;47.726;3.298;2022-09-03T02:40:58;2.73;;;2.10;;
61702;SDS011;47622;47.726;3.298;2022-09-03T02:46:16;5.60;;;2.40;;
61702;SDS011;47622;47.726;3.298;2022-09-03T02:48:46;3.08;;;2.40;;
61702;SDS011;47622;47.726;3.298;2022-09-03T02:51:12;4.05;;;2.58;;
61702;SDS011;47622;47.726;3.298;2022-09-03T02:53:38;2.60;;;2.30;;
61702;SDS011;47622;47.726;3.298;2022-09-03T02:56:04;4.75;;;2.60;;
61702;SDS011;47622;47.726;3.298;2022-09-03T02:58:29;3.38;;;2.30;;
61702;SDS011;47622;47.726;3.298;2022-09-03T03:00:56;3.28;;;2.65;;
61702;SDS011;47622;47.726;3.298;2022-09-03T03:03:22;3.00;;;2.35;;
61702;SDS011;47622;47.726;3.298;2022-09-03T03:05:49;3.90;;;2.50;;
61702;SDS011;47622;47.726;3.298;2022-09-03T03:08:19;2.75;;;2.40;;
61702;SDS011;47622;47.726;3.298;2022-09-03T03:10:48;4.65;;;2.78;;
61702;SDS011;47622;47.726;3.298;2022-09-03T03:13:15;3.65;;;2.83;;
61702;SDS011;47622;47.726;3.298;2022-09-03T03:15:41;3.75;;;2.28;;
61702;SDS011;47622;47.726;3.298;2022-09-03T03:18:07;5.18;;;2.35;;
61702;SDS011;47622;47.726;3.298;2022-09-03T03:20:36;3.30;;;2.20;;
61702;SDS011;47622;47.726;3.298;2022-09-03T03:23:03;5.32;;;2.10;;
61702;SDS011;47622;47.726;3.298;2022-09-03T03:25:33;3.20;;;2.30;;
61702;SDS011;47622;47.726;3.298;2022-09-03T03:28:00;3.22;;;2.20;;
61702;SDS011;47622;47.726;3.298;2022-09-03T03:30:26;4.23;;;2.60;;
61702;SDS011;47622;47.726;3.298;2022-09-03T03:32:52;4.72;;;2.30;;
61702;SDS011;47622;47.726;3.298;2022-09-03T03:35:18;3.70;;;2.58;;
61702;SDS011;47622;47.726;3.298;2022-09-03T03:37:44;2.75;;;2.30;;
61702;SDS011;47622;47.726;3.298;2022-09-03T03:40:10;3.63;;;2.45;;
61702;SDS011;47622;47.726;3.298;2022-09-03T03:42:37;2.88;;;2.55;;
61702;SDS011;47622;47.726;3.298;2022-09-03T03:45:03;4.35;;;2.80;;
61702;SDS011;47622;47.726;3.298;2022-09-03T03:47:29;3.30;;;2.53;;
61702;SDS011;47622;47.726;3.298;2022-09-03T03:49:58;3.35;;;2.65;;
61702;SDS011;47622;47.726;3.298;2022-09-03T03:52:24;3.63;;;2.47;;
61702;SDS011;47622;47.726;3.298;2022-09-03T03:54:51;2.92;;;2.25;;
61702;SDS011;47622;47.726;3.298;2022-09-03T03:57:18;3.38;;;2.20;;
61702;SDS011;47622;47.726;3.298;2022-09-03T03:59:44;3.72;;;2.67;;
61702;SDS011;47622;47.726;3.298;2022-09-03T04:02:11;7.20;;;2.67;;
61702;SDS011;47622;47.726;3.298;2022-09-03T04:04:36;6.95;;;3.55;;
61702;SDS011;47622;47.726;3.298;2022-09-03T04:07:02;4.10;;;2.60;;
61702;SDS011;47622;47.726;3.298;2022-09-03T04:09:28;6.95;;;2.88;;
61702;SDS011;47622;47.726;3.298;2022-09-03T04:11:53;6.25;;;2.67;;
61702;SDS011;47622;47.726;3.298;2022-09-03T04:14:22;6.03;;;2.90;;
61702;SDS011;47622;47.726;3.298;2022-09-03T04:16:48;7.00;;;2.88;;
61702;SDS011;47622;47.726;3.298;2022-09-03T04:19:15;4.13;;;2.60;;
61702;SDS011;47622;47.726;3.298;2022-09-03T04:21:40;4.65;;;2.53;;
61702;SDS011;47622;47.726;3.298;2022-09-03T04:24:06;6.03;;;2.65;;
61702;SDS011;47622;47.726;3.298;2022-09-03T04:26:32;3.63;;;2.50;;
61702;SDS011;47622;47.726;3.298;2022-09-03T04:28:58;8.23;;;2.58;;
61702;SDS011;47622;47.726;3.298;2022-09-03T04:31:27;3.42;;;2.90;;
61702;SDS011;47622;47.726;3.298;2022-09-03T04:33:53;5.88;;;2.78;;
61702;SDS011;47622;47.726;3.298;2022-09-03T04:36:23;5.43;;;2.95;;
61702;SDS011;47622;47.726;3.298;2022-09-03T04:38:51;3.22;;;2.65;;
61702;SDS011;47622;47.726;3.298;2022-09-03T04:41:21;4.47;;;2.65;;
61702;SDS011;47622;47.726;3.298;2022-09-03T04:43:55;3.92;;;2.83;;
61702;SDS011;47622;47.726;3.298;2022-09-03T04:46:22;3.97;;;3.08;;
61702;SDS011;47622;47.726;3.298;2022-09-03T04:48:50;5.30;;;2.78;;
61702;SDS011;47622;47.726;3.298;2022-09-03T04:51:21;6.60;;;3.00;;
61702;SDS011;47622;47.726;3.298;2022-09-03T04:53:52;4.38;;;2.67;;
61702;SDS011;47622;47.726;3.298;2022-09-03T04:56:20;4.32;;;2.40;;
61702;SDS011;47622;47.726;3.298;2022-09-03T04:58:48;3.00;;;2.35;;
61702;SDS011;47622;47.726;3.298;2022-09-03T05:01:21;3.33;;;2.88;;
61702;SDS011;47622;47.726;3.298;2022-09-03T05:03:48;4.63;;;2.88;;
61702;SDS011;47622;47.726;3.298;2022-09-03T05:06:17;4.15;;;2.85;;
61702;SDS011;47622;47.726;3.298;2022-09-03T05:08:46;5.07;;;2.50;;
61702;SDS011;47622;47.726;3.298;2022-09-03T05:11:13;3.00;;;2.45;;
61702;SDS011;47622;47.726;3.298;2022-09-03T05:13:38;3.55;;;2.40;;
61702;SDS011;47622;47.726;3.298;2022-09-03T05:16:08;3.97;;;2.97;;
61702;SDS011;47622;47.726;3.298;2022-09-03T05:18:35;4.07;;;2.70;;
61702;SDS011;47622;47.726;3.298;2022-09-03T05:21:05;3.42;;;2.90;;
61702;SDS011;47622;47.726;3.298;2022-09-03T05:23:35;4.35;;;2.78;;
61702;SDS011;47622;47.726;3.298;2022-09-03T05:26:03;4.50;;;2.55;;
61702;SDS011;47622;47.726;3.298;2022-09-03T05:28:33;5.13;;;2.67;;
61702;SDS011;47622;47.726;3.298;2022-09-03T05:31:08;5.80;;;2.80;;
61702;SDS011;47622;47.726;3.298;2022-09-03T05:33:41;4.68;;;2.90;;
61702;SDS011;47622;47.726;3.298;2022-09-03T05:36:12;4.88;;;2.75;;
61702;SDS011;47622;47.726;3.298;2022-09-03T05:38:40;4.70;;;3.03;;
61702;SDS011;47622;47.726;3.298;2022-09-03T05:41:07;5.85;;;2.90;;
61702;SDS011;47622;47.726;3.298;2022-09-03T05:43:35;6.35;;;2.78;;
61702;SDS011;47622;47.726;3.298;2022-09-03T05:46:01;3.53;;;2.50;;
61702;SDS011;47622;47.726;3.298;2022-09-03T05:48:33;3.90;;;2.97;;
61702;SDS011;47622;47.726;3.298;2022-09-03T05:51:00;3.72;;;3.25;;
61702;SDS011;47622;47.726;3.298;2022-09-03T05:53:28;4.10;;;3.03;;
61702;SDS011;47622;47.726;3.298;2022-09-03T05:56:01;7.25;;;3.08;;
61702;SDS011;47622;47.726;3.298;2022-09-03T05:58:30;3.92;;;2.67;;
61702;SDS011;47622;47.726;3.298;2022-09-03T06:00:57;4.00;;;3.38;;
61702;SDS011;47622;47.726;3.298;2022-09-03T06:03:23;4.07;;;3.10;;
61702;SDS011;47622;47.726;3.298;2022-09-03T06:05:50;5.53;;;2.90;;
61702;SDS011;47622;47.726;3.298;2022-09-03T06:08:16;4.43;;;3.58;;
61702;SDS011;47622;47.726;3.298;2022-09-03T06:10:41;4.10;;;3.45;;
61702;SDS011;47622;47.726;3.298;2022-09-03T06:13:07;4.28;;;3.42;;
61702;SDS011;47622;47.726;3.298;2022-09-03T06:15:33;3.83;;;3.47;;
61702;SDS011;47622;47.726;3.298;2022-09-03T06:17:58;3.35;;;3.03;;
61702;SDS011;47622;47.726;3.298;2022-09-03T06:20:24;4.13;;;3.03;;
61702;SDS011;47622;47.726;3.298;2022-09-03T06:22:53;5.45;;;3.60;;
61702;SDS011;47622;47.726;3.298;2022-09-03T06:25:19;4.53;;;3.45;;
61702;SDS011;47622;47.726;3.298;2022-09-03T06:27:45;4.82;;;3.35;;
61702;SDS011;47622;47.726;3.298;2022-09-03T06:30:11;6.10;;;3.80;;
61702;SDS011;47622;47.726;3.298;2022-09-03T06:32:44;4.45;;;3.30;;
61702;SDS011;47622;47.726;3.298;2022-09-03T06:35:11;4.72;;;3.30;;
61702;SDS011;47622;47.726;3.298;2022-09-03T06:37:40;4.60;;;3.42;;
61702;SDS011;47622;47.726;3.298;2022-09-03T06:40:07;3.95;;;3.10;;
61702;SDS011;47622;47.726;3.298;2022-09-03T06:42:39;4.68;;;3.17;;
61702;SDS011;47622;47.726;3.298;2022-09-03T06:45:06;3.30;;;3.00;;
61702;SDS011;47622;47.726;3.298;2022-09-03T06:47:32;5.55;;;3.83;;
61702;SDS011;47622;47.726;3.298;2022-09-03T06:49:58;4.85;;;3.40;;
61702;SDS011;47622;47.726;3.298;2022-09-03T06:52:26;5.25;;;3.72;;
61702;SDS011;47622;47.726;3.298;2022-09-03T06:54:52;5.03;;;3.55;;
61702;SDS011;47622;47.726;3.298;2022-09-03T06:57:18;8.00;;;3.60;;
61702;SDS011;47622;47.726;3.298;2022-09-03T06:59:43;8.13;;;3.80;;
61702;SDS011;47622;47.726;3.298;2022-09-03T07:02:09;7.25;;;4.40;;
61702;SDS011;47622;47.726;3.298;2022-09-03T07:04:35;4.75;;;3.63;;
61702;SDS011;47622;47.726;3.298;2022-09-03T07:07:01;5.53;;;3.92;;
61702;SDS011;47622;47.726;3.298;2022-09-03T07:09:26;7.80;;;3.85;;
61702;SDS011;47622;47.726;3.298;2022-09-03T07:11:52;3.97;;;3.58;;
61702;SDS011;47622;47.726;3.298;2022-09-03T07:14:19;7.82;;;4.70;;
61702;SDS011;47622;47.726;3.298;2022-09-03T07:16:49;5.05;;;4.30;;
61702;SDS011;47622;47.726;3.298;2022-09-03T07:19:15;5.68;;;4.00;;
61702;SDS011;47622;47.726;3.298;2022-09-03T07:21:41;6.80;;;3.85;;
61702;SDS011;47622;47.726;3.298;2022-09-03T07:24:08;6.72;;;4.50;;
61702;SDS011;47622;47.726;3.298;2022-09-03T07:26:35;9.10;;;4.60;;
61702;SDS011;47622;47.726;3.298;2022-09-03T07:29:03;4.68;;;3.70;;
61702;SDS011;47622;47.726;3.298;2022-09-03T07:31:33;5.28;;;3.55;;
61702;SDS011;47622;47.726;3.298;2022-09-03T07:34:02;7.30;;;4.25;;
61702;SDS011;47622;47.726;3.298;2022-09-03T07:36:30;5.32;;;3.92;;
61702;SDS011;47622;47.726;3.298;2022-09-03T07:39:04;5.45;;;3.50;;
61702;SDS011;47622;47.726;3.298;2022-09-03T07:41:29;9.13;;;3.55;;
61702;SDS011;47622;47.726;3.298;2022-09-03T07:43:57;4.18;;;3.55;;
61702;SDS011;47622;47.726;3.298;2022-09-03T07:46:29;6.15;;;3.20;;
61702;SDS011;47622;47.726;3.298;2022-09-03T07:48:56;3.95;;;2.78;;
61702;SDS011;47622;47.726;3.298;2022-09-03T07:51:26;2.90;;;2.60;;
61702;SDS011;47622;47.726;3.298;2022-09-03T07:53:55;5.15;;;2.70;;
61702;SDS011;47622;47.726;3.298;2022-09-03T07:56:22;3.97;;;2.78;;
61702;SDS011;47622;47.726;3.298;2022-09-03T07:58:49;5.53;;;2.80;;
61702;SDS011;47622;47.726;3.298;2022-09-03T08:01:19;8.35;;;2.90;;
61702;SDS011;47622;47.726;3.298;2022-09-03T08:03:47;4.28;;;2.72;;
61702;SDS011;47622;47.726;3.298;2022-09-03T08:06:15;6.75;;;3.60;;
61702;SDS011;47622;47.726;3.298;2022-09-03T08:08:42;7.93;;;3.35;;
61702;SDS011;47622;47.726;3.298;2022-09-03T08:11:12;6.63;;;3.38;;
61702;SDS011;47622;47.726;3.298;2022-09-03T08:13:43;6.35;;;3.28;;
61702;SDS011;47622;47.726;3.298;2022-09-03T08:16:10;5.57;;;3.22;;
61702;SDS011;47622;47.726;3.298;2022-09-03T08:18:37;3.70;;;2.67;;
61702;SDS011;47622;47.726;3.298;2022-09-03T08:21:04;6.05;;;3.20;;
61702;SDS011;47622;47.726;3.298;2022-09-03T08:23:38;7.50;;;3.25;;
61702;SDS011;47622;47.726;3.298;2022-09-03T08:26:05;5.38;;;3.22;;
61702;SDS011;47622;47.726;3.298;2022-09-03T08:28:32;5.18;;;2.80;;
61702;SDS011;47622;47.726;3.298;2022-09-03T08:31:05;5.13;;;2.72;;
61702;SDS011;47622;47.726;3.298;2022-09-03T08:33:36;3.13;;;2.83;;
61702;SDS011;47622;47.726;3.298;2022-09-03T08:36:06;5.78;;;2.88;;
61702;SDS011;47622;47.726;3.298;2022-09-03T08:38:34;4.35;;;2.92;;
61702;SDS011;47622;47.726;3.298;2022-09-03T08:52:30;2.60;;;2.20;;
61702;SDS011;47622;47.726;3.298;2022-09-03T08:58:16;5.78;;;1.42;;
61702;SDS011;47622;47.726;3.298;2022-09-03T09:00:53;2.50;;;1.60;;
61702;SDS011;47622;47.726;3.298;2022-09-03T09:06:32;2.55;;;1.88;;
61702;SDS011;47622;47.726;3.298;2022-09-03T09:12:06;2.33;;;1.42;;
61702;SDS011;47622;47.726;3.298;2022-09-03T09:15:03;1.90;;;1.70;;
61702;SDS011;47622;47.726;3.298;2022-09-03T09:17:38;2.25;;;1.35;;
61702;SDS011;47622;47.726;3.298;2022-09-03T09:23:04;3.42;;;1.40;;
61702;SDS011;47622;47.726;3.298;2022-09-03T09:25:31;3.92;;;1.38;;
61702;SDS011;47622;47.726;3.298;2022-09-03T09:28:09;5.47;;;1.37;;
61702;SDS011;47622;47.726;3.298;2022-09-03T09:30:42;1.48;;;1.33;;
61702;SDS011;47622;47.726;3.298;2022-09-03T09:33:10;1.63;;;1.27;;
61702;SDS011;47622;47.726;3.298;2022-09-03T09:35:36;2.03;;;1.40;;
61702;SDS011;47622;47.726;3.298;2022-09-03T09:38:05;2.78;;;1.40;;
61702;SDS011;47622;47.726;3.298;2022-09-03T09:40:33;3.50;;;1.38;;
61702;SDS011;47622;47.726;3.298;2022-09-03T09:43:09;2.03;;;1.65;;
61702;SDS011;47622;47.726;3.298;2022-09-03T09:45:45;3.97;;;1.73;;
61702;SDS011;47622;47.726;3.298;2022-09-03T09:48:21;2.53;;;1.88;;
61702;SDS011;47622;47.726;3.298;2022-09-03T09:51:05;3.08;;;1.95;;
61702;SDS011;47622;47.726;3.298;2022-09-03T09:53:37;4.00;;;2.20;;
61702;SDS011;47622;47.726;3.298;2022-09-03T09:56:03;3.22;;;1.80;;
61702;SDS011;47622;47.726;3.298;2022-09-03T09:58:29;2.40;;;2.17;;
61702;SDS011;47622;47.726;3.298;2022-09-03T10:01:10;4.13;;;2.40;;
61702;SDS011;47622;47.726;3.298;2022-09-03T10:03:39;2.80;;;2.20;;
61702;SDS011;47622;47.726;3.298;2022-09-03T10:06:13;3.67;;;2.45;;
61702;SDS011;47622;47.726;3.298;2022-09-03T10:09:13;3.25;;;1.83;;
61702;SDS011;47622;47.726;3.298;2022-09-03T10:11:46;3.80;;;2.10;;
61702;SDS011;47622;47.726;3.298;2022-09-03T10:14:28;2.95;;;1.80;;
61702;SDS011;47622;47.726;3.298;2022-09-03T10:20:08;2.90;;;1.70;;
61702;SDS011;47622;47.726;3.298;2022-09-03T10:25:35;4.10;;;1.90;;
61702;SDS011;47622;47.726;3.298;2022-09-03T10:28:08;2.22;;;1.67;;
61702;SDS011;47622;47.726;3.298;2022-09-03T10:31:18;3.45;;;1.65;;
61702;SDS011;47622;47.726;3.298;2022-09-03T10:33:47;3.58;;;1.88;;
61702;SDS011;47622;47.726;3.298;2022-09-03T10:38:52;3.00;;;1.65;;
61702;SDS011;47622;47.726;3.298;2022-09-03T10:41:39;3.13;;;1.75;;
61702;SDS011;47622;47.726;3.298;2022-09-03T10:44:23;2.45;;;1.52;;
61702;SDS011;47622;47.726;3.298;2022-09-03T10:57:21;2.30;;;1.40;;
61702;SDS011;47622;47.726;3.298;2022-09-03T11:00:06;2.67;;;1.70;;
61702;SDS011;47622;47.726;3.298;2022-09-03T11:05:55;2.83;;;1.70;;
61702;SDS011;47622;47.726;3.298;2022-09-03T11:09:04;3.00;;;1.27;;
61702;SDS011;47622;47.726;3.298;2022-09-03T11:11:54;3.60;;;1.20;;
61702;SDS011;47622;47.726;3.298;2022-09-03T11:14:34;2.25;;;1.55;;
61702;SDS011;47622;47.726;3.298;2022-09-03T11:17:15;2.40;;;1.10;;
61702;SDS011;47622;47.726;3.298;2022-09-03T11:22:44;1.65;;;1.55;;
61702;SDS011;47622;47.726;3.298;2022-09-03T11:25:12;2.72;;;1.45;;
61702;SDS011;47622;47.726;3.298;2022-09-03T11:30:06;2.92;;;1.40;;
61702;SDS011;47622;47.726;3.298;2022-09-03T11:32:40;1.95;;;1.27;;
61702;SDS011;47622;47.726;3.298;2022-09-03T11:35:16;2.70;;;1.40;;
61702;SDS011;47622;47.726;3.298;2022-09-03T11:38:06;1.95;;;1.30;;
61702;SDS011;47622;47.726;3.298;2022-09-03T11:45:59;1.55;;;1.33;;
61702;SDS011;47622;47.726;3.298;2022-09-03T11:48:45;1.45;;;1.13;;
61702;SDS011;47622;47.726;3.298;2022-09-03T11:51:29;3.25;;;1.20;;
61702;SDS011;47622;47.726;3.298;2022-09-03T11:54:03;1.88;;;1.23;;
61702;SDS011;47622;47.726;3.298;2022-09-03T11:56:32;1.50;;;1.23;;
61702;SDS011;47622;47.726;3.298;2022-09-03T11:59:14;2.90;;;1.30;;
61702;SDS011;47622;47.726;3.298;2022-09-03T12:07:24;1.48;;;1.10;;
61702;SDS011;47622;47.726;3.298;2022-09-03T12:18:38;1.45;;;1.20;;
61702;SDS011;47622;47.726;3.298;2022-09-03T12:21:05;1.77;;;1.10;;
61702;SDS011;47622;47.726;3.298;2022-09-03T12:26:16;2.25;;;1.30;;
61702;SDS011;47622;47.726;3.298;2022-09-03T12:28:52;2.13;;;1.25;;
61702;SDS011;47622;47.726;3.298;2022-09-03T12:31:21;2.50;;;1.23;;
61702;SDS011;47622;47.726;3.298;2022-09-03T12:36:19;1.30;;;1.20;;
61702;SDS011;47622;47.726;3.298;2022-09-03T12:38:47;2.90;;;1.10;;
61702;SDS011;47622;47.726;3.298;2022-09-03T12:41:26;1.30;;;1.20;;
61702;SDS011;47622;47.726;3.298;2022-09-03T12:43:58;1.87;;;1.30;;
61702;SDS011;47622;47.726;3.298;2022-09-03T12:46:26;1.85;;;1.30;;
61702;SDS011;47622;47.726;3.298;2022-09-03T12:48:57;2.17;;;1.30;;
61702;SDS011;47622;47.726;3.298;2022-09-03T12:51:38;2.45;;;1.30;;
61702;SDS011;47622;47.726;3.298;2022-09-03T12:54:07;2.75;;;1.45;;
61702;SDS011;47622;47.726;3.298;2022-09-03T12:56:40;3.17;;;1.30;;
61702;SDS011;47622;47.726;3.298;2022-09-03T12:59:10;1.27;;;1.02;;
61702;SDS011;47622;47.726;3.298;2022-09-03T13:01:44;1.92;;;1.23;;
61702;SDS011;47622;47.726;3.298;2022-09-03T13:04:23;1.40;;;1.30;;
61702;SDS011;47622;47.726;3.298;2022-09-03T13:07:02;1.80;;;1.30;;
61702;SDS011;47622;47.726;3.298;2022-09-03T13:09:36;2.85;;;1.25;;
61702;SDS011;47622;47.726;3.298;2022-09-03T13:12:04;2.42;;;1.30;;
61702;SDS011;47622;47.726;3.298;2022-09-03T13:14:43;1.48;;;1.35;;
61702;SDS011;47622;47.726;3.298;2022-09-03T13:22:14;1.80;;;1.35;;
61702;SDS011;47622;47.726;3.298;2022-09-03T13:30:07;1.90;;;1.40;;
61702;SDS011;47622;47.726;3.298;2022-09-03T13:44:00;2.20;;;1.40;;
61702;SDS011;47622;47.726;3.298;2022-09-03T13:49:33;2.45;;;1.50;;
61702;SDS011;47622;47.726;3.298;2022-09-03T13:54:54;1.92;;;1.40;;
61702;SDS011;47622;47.726;3.298;2022-09-03T13:57:31;1.63;;;1.30;;
61702;SDS011;47622;47.726;3.298;2022-09-03T14:00:07;2.00;;;1.23;;
61702;SDS011;47622;47.726;3.298;2022-09-03T14:05:40;3.38;;;1.40;;
61702;SDS011;47622;47.726;3.298;2022-09-03T14:16:15;1.30;;;1.10;;
61702;SDS011;47622;47.726;3.298;2022-09-03T14:21:34;4.20;;;1.30;;
61702;SDS011;47622;47.726;3.298;2022-09-03T14:24:20;1.58;;;1.20;;
61702;SDS011;47622;47.726;3.298;2022-09-03T14:26:53;1.27;;;1.13;;
61702;SDS011;47622;47.726;3.298;2022-09-03T14:29:25;2.65;;;1.05;;
61702;SDS011;47622;47.726;3.298;2022-09-03T14:35:04;1.83;;;1.30;;
61702;SDS011;47622;47.726;3.298;2022-09-03T14:54:19;2.80;;;1.38;;
61702;SDS011;47622;47.726;3.298;2022-09-03T15:02:22;3.77;;;1.43;;
61702;SDS011;47622;47.726;3.298;2022-09-03T15:11:23;2.95;;;1.38;;
61702;SDS011;47622;47.726;3.298;2022-09-03T15:17:01;2.03;;;1.35;;
61702;SDS011;47622;47.726;3.298;2022-09-03T15:19:50;3.75;;;1.23;;
61702;SDS011;47622;47.726;3.298;2022-09-03T15:30:31;2.85;;;1.33;;
61702;SDS011;47622;47.726;3.298;2022-09-03T15:33:05;3.58;;;1.63;;
61702;SDS011;47622;47.726;3.298;2022-09-03T15:40:56;3.53;;;1.45;;
61702;SDS011;47622;47.726;3.298;2022-09-03T15:43:29;2.63;;;1.60;;
61702;SDS011;47622;47.726;3.298;2022-09-03T15:51:34;2.88;;;1.50;;
61702;SDS011;47622;47.726;3.298;2022-09-03T15:57:06;3.13;;;1.30;;
61702;SDS011;47622;47.726;3.298;2022-09-03T16:02:29;3.15;;;1.50;;
61702;SDS011;47622;47.726;3.298;2022-09-03T16:05:13;5.32;;;1.70;;
61702;SDS011;47622;47.726;3.298;2022-09-03T16:19:09;3.95;;;1.58;;
61702;SDS011;47622;47.726;3.298;2022-09-03T16:26:54;3.22;;;1.50;;
61702;SDS011;47622;47.726;3.298;2022-09-03T16:29:26;2.22;;;1.70;;
61702;SDS011;47622;47.726;3.298;2022-09-03T16:37:28;3.40;;;1.45;;
61702;SDS011;47622;47.726;3.298;2022-09-03T16:43:15;3.28;;;1.40;;
61702;SDS011;47622;47.726;3.298;2022-09-03T16:45:53;2.63;;;1.65;;
61702;SDS011;47622;47.726;3.298;2022-09-03T16:51:48;3.05;;;1.80;;
61702;SDS011;47622;47.726;3.298;2022-09-03T16:54:15;3.63;;;1.67;;
61702;SDS011;47622;47.726;3.298;2022-09-03T16:57:25;4.35;;;1.88;;
61702;SDS011;47622;47.726;3.298;2022-09-03T17:00:09;3.33;;;1.88;;
61702;SDS011;47622;47.726;3.298;2022-09-03T17:10:50;3.47;;;1.75;;
61702;SDS011;47622;47.726;3.298;2022-09-03T17:13:32;1.67;;;1.50;;
61702;SDS011;47622;47.726;3.298;2022-09-03T17:21:48;2.03;;;1.60;;
61702;SDS011;47622;47.726;3.298;2022-09-03T17:24:33;2.25;;;1.60;;
61702;SDS011;47622;47.726;3.298;2022-09-03T17:40:52;2.47;;;1.88;;
61702;SDS011;47622;47.726;3.298;2022-09-03T17:48:40;2.20;;;1.70;;
61702;SDS011;47622;47.726;3.298;2022-09-03T18:08:06;3.15;;;1.90;;
61702;SDS011;47622;47.726;3.298;2022-09-03T18:11:05;4.38;;;1.95;;
61702;SDS011;47622;47.726;3.298;2022-09-03T18:17:05;2.58;;;1.65;;
61702;SDS011;47622;47.726;3.298;2022-09-03T18:19:45;2.00;;;1.80;;
61702;SDS011;47622;47.726;3.298;2022-09-03T18:22:33;2.15;;;1.70;;
61702;SDS011;47622;47.726;3.298;2022-09-03T18:25:25;2.85;;;1.45;;
61702;SDS011;47622;47.726;3.298;2022-09-03T18:28:12;3.70;;;2.33;;
61702;SDS011;47622;47.726;3.298;2022-09-03T18:31:00;3.20;;;1.85;;
61702;SDS011;47622;47.726;3.298;2022-09-03T18:33:44;3.13;;;1.58;;
61702;SDS011;47622;47.726;3.298;2022-09-03T18:36:29;2.80;;;1.75;;
61702;SDS011;47622;47.726;3.298;2022-09-03T18:39:15;3.13;;;1.90;;
61702;SDS011;47622;47.726;3.298;2022-09-03T18:42:05;2.70;;;1.75;;
61702;SDS011;47622;47.726;3.298;2022-09-03T18:51:10;2.33;;;1.67;;
61702;SDS011;47622;47.726;3.298;2022-09-03T18:54:15;3.08;;;2.00;;
61702;SDS011;47622;47.726;3.298;2022-09-03T18:57:21;2.30;;;2.10;;
61702;SDS011;47622;47.726;3.298;2022-09-03T19:15:07;6.45;;;3.10;;
61702;SDS011;47622;47.726;3.298;2022-09-03T19:22:15;6.32;;;3.40;;
61702;SDS011;47622;47.726;3.298;2022-09-03T19:25:02;5.75;;;3.03;;
61702;SDS011;47622;47.726;3.298;2022-09-03T19:34:41;4.65;;;2.88;;
61702;SDS011;47622;47.726;3.298;2022-09-03T19:37:40;3.83;;;2.45;;
61702;SDS011;47622;47.726;3.298;2022-09-03T19:46:49;4.85;;;2.40;;
61702;SDS011;47622;47.726;3.298;2022-09-03T19:55:42;2.58;;;2.10;;
61702;SDS011;47622;47.726;3.298;2022-09-03T19:58:30;5.15;;;2.42;;
61702;SDS011;47622;47.726;3.298;2022-09-03T20:01:16;3.10;;;2.03;;
61702;SDS011;47622;47.726;3.298;2022-09-03T20:04:05;3.47;;;2.20;;
61702;SDS011;47622;47.726;3.298;2022-09-03T20:06:55;3.03;;;2.67;;
61702;SDS011;47622;47.726;3.298;2022-09-03T20:09:42;6.13;;;2.72;;
61702;SDS011;47622;47.726;3.298;2022-09-03T20:12:27;4.43;;;2.67;;
61702;SDS011;47622;47.726;3.298;2022-09-03T20:14:57;5.35;;;2.90;;
61702;SDS011;47622;47.726;3.298;2022-09-03T20:37:20;6.47;;;2.60;;
61702;SDS011;47622;47.726;3.298;2022-09-03T20:43:06;2.40;;;2.20;;
61702;SDS011;47622;47.726;3.298;2022-09-03T20:51:16;3.00;;;2.60;;
61702;SDS011;47622;47.726;3.298;2022-09-03T20:56:24;6.50;;;2.72;;
61702;SDS011;47622;47.726;3.298;2022-09-03T21:01:44;3.72;;;2.58;;
61702;SDS011;47622;47.726;3.298;2022-09-03T21:18:37;5.55;;;2.78;;
61702;SDS011;47622;47.726;3.298;2022-09-03T21:24:21;5.03;;;2.50;;
61702;SDS011;47622;47.726;3.298;2022-09-03T21:26:52;2.60;;;2.33;;
61702;SDS011;47622;47.726;3.298;2022-09-03T21:29:42;3.15;;;2.85;;
61702;SDS011;47622;47.726;3.298;2022-09-03T21:32:24;4.35;;;3.05;;
61702;SDS011;47622;47.726;3.298;2022-09-03T21:35:00;3.72;;;2.70;;
61702;SDS011;47622;47.726;3.298;2022-09-03T21:37:40;5.38;;;2.90;;
61702;SDS011;47622;47.726;3.298;2022-09-03T21:40:14;3.53;;;2.70;;
61702;SDS011;47622;47.726;3.298;2022-09-03T21:42:54;6.07;;;2.67;;
61702;SDS011;47622;47.726;3.298;2022-09-03T21:45:29;6.28;;;2.72;;
61702;SDS011;47622;47.726;3.298;2022-09-03T21:48:15;2.72;;;2.50;;
61702;SDS011;47622;47.726;3.298;2022-09-03T21:50:59;2.90;;;2.60;;
61702;SDS011;47622;47.726;3.298;2022-09-03T21:53:29;9.55;;;3.17;;
61702;SDS011;47622;47.726;3.298;2022-09-03T21:59:25;9.32;;;2.95;;
61702;SDS011;47622;47.726;3.298;2022-09-03T22:02:11;2.65;;;2.38;;
61702;SDS011;47622;47.726;3.298;2022-09-03T22:04:41;4.28;;;2.72;;
61702;SDS011;47622;47.726;3.298;2022-09-03T22:09:48;4.32;;;2.75;;
61702;SDS011;47622;47.726;3.298;2022-09-03T22:20:11;7.45;;;2.90;;
61702;SDS011;47622;47.726;3.298;2022-09-03T22:34:21;3.15;;;2.63;;
61702;SDS011;47622;47.726;3.298;2022-09-03T22:37:14;4.70;;;3.00;;
61702;SDS011;47622;47.726;3.298;2022-09-03T22:39:49;7.45;;;2.80;;
61702;SDS011;47622;47.726;3.298;2022-09-03T22:45:02;6.88;;;2.80;;
61702;SDS011;47622;47.726;3.298;2022-09-03T22:50:56;3.42;;;2.53;;
61702;SDS011;47622;47.726;3.298;2022-09-03T22:53:28;4.45;;;2.60;;
61702;SDS011;47622;47.726;3.298;2022-09-03T23:06:25;4.22;;;2.95;;
61702;SDS011;47622;47.726;3.298;2022-09-03T23:09:04;4.43;;;2.72;;